Time;durP1;ratioP1;P1;durP2;ratioP2;P2;SDS_P1;SDS_P2;PMS_P1;PMS_P2;Temp;Humidity;BMP_temperature;BMP_pressure;BME280_temperature;BME280_humidity;BME280_pressure;Samples;Min_cycle;Max_cycle;Signal;HPM_P1;HPM_P2
2021/01/17 00:00:14;;;;;;;15.10;10.40;;;0.20;99.90;;;;;;5067167;28;20208;-58
2021/01/17 00:02:39;;;;;;;15.27;10.07;;;-0.10;99.90;;;;;;5066403;28;20192;-58
2021/01/17 00:05:13;;;;;;;15.27;9.17;;;0.00;99.90;;;;;;5063327;28;20298;-58
2021/01/17 00:07:39;;;;;;;17.33;10.63;;;0.10;99.90;;;;;;5047355;28;21028;-57
2021/01/17 00:10:11;;;;;;;14.27;10.25;;;0.20;99.90;;;;;;5064189;28;20205;-58
2021/01/17 00:12:37;;;;;;;13.95;9.88;;;-0.10;99.90;;;;;;5064107;28;20279;-59
2021/01/17 00:15:07;;;;;;;15.88;10.38;;;0.00;99.90;;;;;;5063250;28;20177;-58
2021/01/17 00:17:33;;;;;;;14.15;9.30;;;0.20;99.90;;;;;;5054031;28;20663;-59
2021/01/17 00:19:58;;;;;;;13.20;9.13;;;0.20;99.90;;;;;;5063804;28;20260;-58
2021/01/17 00:22:24;;;;;;;13.10;9.13;;;0.20;99.90;;;;;;5066835;28;20672;-57
2021/01/17 00:24:49;;;;;;;14.50;9.13;;;0.20;99.90;;;;;;5058243;28;20681;-58
2021/01/17 00:27:16;;;;;;;12.50;9.57;;;0.00;99.90;;;;;;5064192;28;20555;-58
2021/01/17 00:29:42;;;;;;;12.30;7.90;;;-0.20;99.90;;;;;;5062205;28;20206;-58
2021/01/17 00:32:13;;;;;;;18.75;9.60;;;0.20;99.90;;;;;;5063147;28;20195;-58
2021/01/17 00:34:39;;;;;;;16.60;8.85;;;0.50;99.90;;;;;;5061847;28;20182;-58
2021/01/17 00:37:06;;;;;;;14.93;10.52;;;0.50;99.90;;;;;;5067450;28;20525;-58
2021/01/17 00:39:31;;;;;;;11.88;9.50;;;0.20;99.90;;;;;;5066407;28;20211;-57
2021/01/17 00:41:57;;;;;;;15.43;10.13;;;0.00;99.90;;;;;;5063382;28;20574;-58
2021/01/17 00:44:23;;;;;;;16.53;10.90;;;-0.20;99.90;;;;;;5057624;28;20551;-58
2021/01/17 00:46:49;;;;;;;15.23;9.90;;;0.00;99.90;;;;;;5064779;28;20948;-58
2021/01/17 00:49:15;;;;;;;13.33;10.53;;;-0.30;99.90;;;;;;5058391;28;20451;-58
2021/01/17 00:51:44;;;;;;;15.70;9.10;;;0.00;99.90;;;;;;5057781;28;20212;-58
2021/01/17 00:54:11;;;;;;;13.85;9.10;;;0.10;99.90;;;;;;5065788;28;20481;-58
2021/01/17 00:56:37;;;;;;;16.33;9.77;;;0.20;99.90;;;;;;5051872;28;20185;-59
2021/01/17 00:59:08;;;;;;;14.15;10.25;;;0.00;99.90;;;;;;5060548;28;20615;-58
2021/01/17 01:01:44;;;;;;;13.20;10.38;;;0.20;99.90;;;;;;5067265;28;20212;-58
2021/01/17 01:04:12;;;;;;;14.93;9.95;;;-0.10;99.90;;;;;;5065599;28;20212;-57
2021/01/17 01:06:38;;;;;;;15.30;10.10;;;0.00;99.90;;;;;;5062257;28;20206;-58
2021/01/17 01:09:08;;;;;;;16.23;9.93;;;0.30;99.90;;;;;;5068029;28;20740;-58
2021/01/17 01:11:34;;;;;;;16.63;10.10;;;0.50;99.90;;;;;;5063432;28;20186;-58
2021/01/17 01:14:00;;;;;;;13.07;9.30;;;0.60;99.90;;;;;;5064768;28;20185;-58
2021/01/17 01:16:26;;;;;;;14.83;10.23;;;0.40;99.90;;;;;;5052925;28;21294;-58
2021/01/17 01:18:51;;;;;;;14.90;9.90;;;0.40;99.90;;;;;;5066412;28;21066;-59
2021/01/17 01:21:36;;;;;;;15.00;9.83;;;0.30;99.90;;;;;;5070845;28;20196;-58
2021/01/17 01:24:01;;;;;;;14.05;10.88;;;0.60;99.90;;;;;;5051758;28;20689;-58
2021/01/17 01:26:38;;;;;;;15.50;11.50;;;0.60;99.90;;;;;;5065905;28;20208;-58
2021/01/17 01:29:04;;;;;;;16.85;10.13;;;0.60;99.90;;;;;;5068528;28;20709;-58
2021/01/17 01:31:30;;;;;;;17.40;10.60;;;0.70;99.90;;;;;;5062732;28;20258;-58
2021/01/17 01:33:57;;;;;;;14.50;10.20;;;0.70;99.90;;;;;;5066770;28;20187;-58
2021/01/17 01:36:31;;;;;;;16.35;10.73;;;0.40;99.90;;;;;;5070120;28;20207;-57
2021/01/17 01:38:57;;;;;;;12.82;9.13;;;0.70;99.90;;;;;;5068743;28;20212;-58
2021/01/17 01:41:28;;;;;;;14.27;10.45;;;0.40;99.90;;;;;;5062066;28;20208;-58
2021/01/17 01:43:54;;;;;;;13.13;9.40;;;0.40;99.90;;;;;;5065012;28;20189;-58
2021/01/17 01:46:25;;;;;;;16.70;10.73;;;0.10;99.90;;;;;;5064192;28;20250;-58
2021/01/17 01:48:53;;;;;;;17.33;11.43;;;0.50;99.90;;;;;;5070096;28;20201;-58
2021/01/17 01:51:20;;;;;;;15.82;11.68;;;0.10;99.90;;;;;;5064248;28;20186;-58
2021/01/17 01:53:46;;;;;;;14.68;10.82;;;-0.10;99.90;;;;;;5064458;28;20190;-59
2021/01/17 01:56:16;;;;;;;15.25;10.15;;;0.00;99.90;;;;;;5058102;28;20666;-59
2021/01/17 01:58:42;;;;;;;18.40;11.13;;;0.30;99.90;;;;;;5065999;28;20212;-59
2021/01/17 02:01:08;;;;;;;17.48;11.80;;;0.40;99.90;;;;;;5055829;28;20190;-59
2021/01/17 02:03:37;;;;;;;16.60;12.90;;;0.20;99.90;;;;;;5062978;28;20193;-59
2021/01/17 02:06:11;;;;;;;16.35;12.27;;;0.50;99.90;;;;;;5057916;28;20212;-58
2021/01/17 02:08:55;;;;;;;16.75;11.98;;;0.50;99.90;;;;;;5059224;28;20575;-58
2021/01/17 02:11:57;;;;;;;14.00;11.18;;;0.40;99.90;;;;;;5058891;28;20177;-58
2021/01/17 02:14:38;;;;;;;17.63;11.80;;;0.50;99.90;;;;;;5063297;28;20185;-59
2021/01/17 02:17:11;;;;;;;14.30;9.63;;;0.50;99.90;;;;;;5062367;28;20542;-58
2021/01/17 02:19:51;;;;;;;16.67;10.45;;;0.30;99.90;;;;;;5068993;28;20240;-57
2021/01/17 02:22:21;;;;;;;13.50;11.05;;;0.40;99.90;;;;;;5068382;28;20188;-58
2021/01/17 02:25:07;;;;;;;18.52;11.90;;;0.60;99.90;;;;;;5056414;28;20190;-58
2021/01/17 02:27:33;;;;;;;19.50;12.13;;;0.30;99.90;;;;;;5053414;28;20196;-59
2021/01/17 02:30:04;;;;;;;17.13;12.30;;;0.30;99.90;;;;;;5067103;28;20201;-58
2021/01/17 02:32:33;;;;;;;18.27;11.80;;;0.10;99.90;;;;;;5061910;28;20186;-58
2021/01/17 02:35:00;;;;;;;18.00;12.15;;;0.00;99.90;;;;;;5063957;28;20181;-58
2021/01/17 02:37:33;;;;;;;16.33;11.07;;;-0.10;99.90;;;;;;5060522;28;20236;-57
2021/01/17 02:40:23;;;;;;;19.33;11.88;;;0.20;99.90;;;;;;5065058;28;20215;-58
2021/01/17 02:42:49;;;;;;;16.45;12.18;;;0.20;99.90;;;;;;5053116;28;20235;-58
2021/01/17 02:45:15;;;;;;;17.60;11.07;;;0.30;99.90;;;;;;5055009;28;20208;-58
2021/01/17 02:47:41;;;;;;;16.65;12.02;;;0.00;99.90;;;;;;5068500;28;20189;-58
2021/01/17 02:50:08;;;;;;;19.50;12.50;;;0.20;99.90;;;;;;5067214;28;20300;-58
2021/01/17 02:53:08;;;;;;;17.00;12.73;;;-0.10;99.90;;;;;;5069870;28;20188;-58
2021/01/17 02:55:38;;;;;;;18.23;12.60;;;0.40;99.90;;;;;;5066365;28;20198;-58
2021/01/17 02:58:07;;;;;;;19.20;12.80;;;0.50;99.90;;;;;;5060226;28;20183;-58
2021/01/17 03:00:33;;;;;;;18.05;12.80;;;0.30;99.90;;;;;;5067926;28;20195;-59
2021/01/17 03:03:01;;;;;;;16.52;11.75;;;0.40;99.90;;;;;;5069666;28;20189;-57
2021/01/17 03:05:27;;;;;;;19.25;12.82;;;0.20;99.90;;;;;;5065266;28;20716;-59
2021/01/17 03:07:55;;;;;;;18.92;13.20;;;0.20;99.90;;;;;;5067745;28;20233;-58
2021/01/17 03:10:22;;;;;;;20.90;14.00;;;0.00;99.90;;;;;;5067232;28;20193;-58
2021/01/17 03:12:48;;;;;;;19.63;14.48;;;0.30;99.90;;;;;;5064386;28;20189;-58
2021/01/17 03:15:15;;;;;;;16.90;12.90;;;0.20;99.90;;;;;;5055666;28;20605;-58
2021/01/17 03:17:44;;;;;;;21.13;14.23;;;0.20;99.90;;;;;;5066616;28;20317;-58
2021/01/17 03:20:10;;;;;;;21.90;14.07;;;0.00;99.90;;;;;;5067294;28;20505;-58
2021/01/17 03:22:36;;;;;;;17.40;12.60;;;-0.20;99.90;;;;;;5068259;28;20185;-58
2021/01/17 03:25:03;;;;;;;20.73;13.57;;;0.20;99.90;;;;;;5068197;28;20258;-58
2021/01/17 03:27:28;;;;;;;18.73;14.35;;;0.30;99.90;;;;;;5064078;28;20659;-58
2021/01/17 03:29:54;;;;;;;20.80;13.20;;;0.20;99.90;;;;;;5060429;28;20201;-58
2021/01/17 03:32:19;;;;;;;24.63;14.10;;;0.00;99.90;;;;;;5067661;28;20181;-58
2021/01/17 03:34:48;;;;;;;21.10;13.73;;;-0.10;99.90;;;;;;5063685;28;20186;-58
2021/01/17 03:37:20;;;;;;;18.17;12.70;;;0.70;99.90;;;;;;5055472;28;20344;-57
2021/01/17 03:39:47;;;;;;;20.10;13.98;;;0.20;99.90;;;;;;5070795;28;20752;-58
2021/01/17 03:42:13;;;;;;;22.55;14.38;;;0.40;99.90;;;;;;5064967;28;20234;-58
2021/01/17 03:44:40;;;;;;;18.17;12.20;;;0.40;99.90;;;;;;5064888;28;20182;-58
2021/01/17 03:47:07;;;;;;;21.27;12.75;;;0.10;99.90;;;;;;5066267;28;20876;-57
2021/01/17 03:49:32;;;;;;;20.85;12.52;;;0.40;99.90;;;;;;5057887;28;20640;-58
2021/01/17 03:51:58;;;;;;;18.93;12.97;;;0.30;99.90;;;;;;5064567;28;20220;-58
2021/01/17 03:54:23;;;;;;;17.63;13.37;;;0.20;99.90;;;;;;5063365;28;20192;-58
2021/01/17 03:56:49;;;;;;;19.17;13.43;;;0.30;99.90;;;;;;5058314;28;20639;-58
2021/01/17 03:59:18;;;;;;;18.33;13.50;;;0.40;99.90;;;;;;5066227;28;20231;-58
2021/01/17 04:01:44;;;;;;;22.02;14.30;;;0.30;99.90;;;;;;5048713;28;20487;-58
2021/01/17 04:04:10;;;;;;;20.93;13.10;;;0.40;99.90;;;;;;5053086;28;20481;-57
2021/01/17 04:06:38;;;;;;;18.37;13.30;;;0.20;99.90;;;;;;5055538;28;20206;-58
2021/01/17 04:09:05;;;;;;;18.60;12.73;;;0.40;99.90;;;;;;5053193;28;20787;-57
2021/01/17 04:11:31;;;;;;;19.45;13.02;;;0.10;99.90;;;;;;5053738;28;20272;-58
2021/01/17 04:13:57;;;;;;;18.20;13.18;;;0.30;99.90;;;;;;5067795;28;20284;-57
2021/01/17 04:16:22;;;;;;;19.77;13.90;;;0.30;99.90;;;;;;5054678;28;20624;-57
2021/01/17 04:18:48;;;;;;;20.50;13.53;;;0.10;99.90;;;;;;5060017;28;21011;-58
2021/01/17 04:21:14;;;;;;;18.60;12.60;;;0.20;99.90;;;;;;5055713;28;20446;-58
2021/01/17 04:23:39;;;;;;;22.53;13.93;;;0.30;99.90;;;;;;5061322;28;20212;-58
2021/01/17 04:26:05;;;;;;;20.20;14.47;;;0.10;99.90;;;;;;5066449;28;20217;-58
2021/01/17 04:28:31;;;;;;;18.47;13.70;;;0.00;99.90;;;;;;5058793;28;20586;-59
2021/01/17 04:30:56;;;;;;;19.10;13.10;;;0.30;99.90;;;;;;5057599;28;20192;-59
2021/01/17 04:33:22;;;;;;;21.57;13.60;;;0.00;99.90;;;;;;5061417;28;20987;-59
2021/01/17 04:35:48;;;;;;;21.07;13.67;;;0.10;99.90;;;;;;5071531;28;20189;-58
2021/01/17 04:38:13;;;;;;;23.30;14.27;;;0.40;99.90;;;;;;5058425;28;20536;-59
2021/01/17 04:40:39;;;;;;;20.47;13.90;;;0.40;99.90;;;;;;5067418;28;20797;-58
2021/01/17 04:43:08;;;;;;;19.30;13.53;;;0.40;99.90;;;;;;5055129;28;20268;-59
2021/01/17 04:45:35;;;;;;;20.35;12.93;;;0.10;99.90;;;;;;5054708;28;20208;-59
2021/01/17 04:48:03;;;;;;;20.83;13.30;;;0.00;99.90;;;;;;5059159;28;20197;-58
2021/01/17 04:50:31;;;;;;;21.15;13.48;;;0.20;99.90;;;;;;5052746;28;20186;-58
2021/01/17 04:53:01;;;;;;;17.52;12.77;;;0.40;99.90;;;;;;5049356;28;20273;-58
2021/01/17 04:55:27;;;;;;;23.05;14.85;;;0.40;99.90;;;;;;5056436;28;20283;-58
2021/01/17 04:58:08;;;;;;;18.85;13.95;;;0.60;99.90;;;;;;5059901;28;20188;-59
2021/01/17 05:00:41;;;;;;;21.50;14.60;;;0.10;99.90;;;;;;5062901;28;20204;-58
2021/01/17 05:03:32;;;;;;;20.73;12.77;;;-0.20;99.90;;;;;;5058164;28;20213;-58
2021/01/17 05:06:16;;;;;;;21.25;14.40;;;0.20;99.90;;;;;;5071834;28;20289;-57
2021/01/17 05:08:45;;;;;;;24.15;14.27;;;0.50;99.90;;;;;;5062753;28;20197;-58
2021/01/17 05:11:35;;;;;;;25.23;14.50;;;-0.10;99.90;;;;;;5055295;28;20281;-58
2021/01/17 05:14:27;;;;;;;18.13;12.20;;;0.60;99.90;;;;;;5063368;28;20272;-57
2021/01/17 05:16:57;;;;;;;21.67;14.10;;;0.50;99.90;;;;;;5083138;28;20288;-58
2021/01/17 05:19:23;;;;;;;17.77;12.70;;;0.70;99.90;;;;;;5064891;28;20237;-57
2021/01/17 05:21:50;;;;;;;20.57;13.30;;;0.40;99.90;;;;;;5060828;28;20196;-58
2021/01/17 05:24:17;;;;;;;22.63;13.43;;;0.60;99.90;;;;;;5062110;28;20181;-58
2021/01/17 05:26:53;;;;;;;24.05;14.75;;;0.30;99.90;;;;;;5067838;28;20217;-57
2021/01/17 05:29:24;;;;;;;21.60;14.15;;;0.30;99.90;;;;;;5068300;28;20291;-57
2021/01/17 05:31:55;;;;;;;21.20;14.25;;;0.20;99.90;;;;;;5070465;28;20267;-58
2021/01/17 05:34:21;;;;;;;22.67;14.07;;;0.00;99.90;;;;;;5070789;28;20247;-57
2021/01/17 05:36:59;;;;;;;21.27;13.32;;;0.10;99.90;;;;;;5058445;28;20280;-58
2021/01/17 05:39:25;;;;;;;23.42;14.40;;;0.20;99.90;;;;;;5068384;28;20197;-57
2021/01/17 05:41:50;;;;;;;23.33;14.00;;;0.30;99.90;;;;;;5068909;28;20236;-58
2021/01/17 05:44:29;;;;;;;20.60;14.30;;;0.50;99.90;;;;;;5068856;28;20220;-58
2021/01/17 05:47:05;;;;;;;18.52;14.20;;;0.60;99.90;;;;;;5069600;28;20212;-57
2021/01/17 05:49:32;;;;;;;17.60;13.00;;;0.70;99.90;;;;;;5063406;28;20206;-58
2021/01/17 05:52:11;;;;;;;21.80;14.43;;;0.20;99.90;;;;;;5055793;28;20630;-58
2021/01/17 05:54:42;;;;;;;21.38;13.50;;;0.50;99.90;;;;;;5065765;28;20625;-58
2021/01/17 05:57:23;;;;;;;21.67;13.30;;;0.50;99.90;;;;;;5061461;28;20565;-58
2021/01/17 05:59:50;;;;;;;21.30;14.27;;;0.30;99.90;;;;;;5065516;28;20205;-58
2021/01/17 06:02:17;;;;;;;19.40;14.13;;;0.60;99.90;;;;;;5067420;28;20191;-58
2021/01/17 06:04:47;;;;;;;22.90;14.77;;;0.40;99.90;;;;;;5067977;28;20193;-58
2021/01/17 06:07:15;;;;;;;21.98;14.38;;;0.30;99.90;;;;;;5054298;28;20193;-58
2021/01/17 06:09:42;;;;;;;22.95;15.63;;;0.30;99.90;;;;;;5066049;28;21406;-58
2021/01/17 06:12:09;;;;;;;21.80;13.55;;;0.40;99.90;;;;;;5057724;28;20184;-58
2021/01/17 06:14:35;;;;;;;21.88;13.05;;;0.40;99.90;;;;;;5054749;28;20181;-57
2021/01/17 06:17:03;;;;;;;22.00;16.00;;;0.30;99.90;;;;;;5065456;28;20185;-58
2021/01/17 06:19:36;;;;;;;20.05;14.15;;;0.50;99.90;;;;;;5055292;28;20205;-57
2021/01/17 06:22:07;;;;;;;22.35;15.90;;;0.40;99.90;;;;;;5061055;28;20610;-58
2021/01/17 06:24:34;;;;;;;20.40;13.93;;;0.40;99.90;;;;;;5069471;28;20192;-58
2021/01/17 06:27:02;;;;;;;21.42;14.23;;;0.40;99.90;;;;;;5069567;28;20232;-57
2021/01/17 06:29:42;;;;;;;25.42;15.52;;;0.40;99.90;;;;;;5062451;28;20201;-58
2021/01/17 06:32:19;;;;;;;23.30;14.98;;;0.70;99.90;;;;;;5060983;28;20203;-58
2021/01/17 06:34:47;;;;;;;23.92;15.70;;;0.60;99.90;;;;;;5058195;28;20211;-57
2021/01/17 06:37:14;;;;;;;26.25;14.68;;;0.70;99.90;;;;;;5064033;28;20220;-58
2021/01/17 06:39:51;;;;;;;24.58;16.20;;;0.80;99.90;;;;;;5066211;28;20205;-58
2021/01/17 06:42:19;;;;;;;25.73;15.90;;;0.50;99.90;;;;;;5062454;28;20182;-57
2021/01/17 06:44:46;;;;;;;25.55;17.23;;;0.70;99.90;;;;;;5055215;28;20218;-58
2021/01/17 06:47:23;;;;;;;26.20;17.02;;;0.70;99.90;;;;;;5057990;28;20255;-57
2021/01/17 06:49:53;;;;;;;24.48;17.48;;;0.60;99.90;;;;;;5068456;28;20323;-58
2021/01/17 06:52:20;;;;;;;23.77;15.70;;;0.60;99.90;;;;;;5061868;28;20265;-57
2021/01/17 06:54:48;;;;;;;23.88;15.77;;;0.40;99.90;;;;;;5068844;28;20188;-58
2021/01/17 06:57:14;;;;;;;25.70;16.95;;;0.50;99.90;;;;;;5060059;28;20673;-57
2021/01/17 06:59:45;;;;;;;25.58;16.55;;;0.60;99.90;;;;;;5065404;28;20224;-58
2021/01/17 07:02:14;;;;;;;23.85;15.80;;;0.90;99.90;;;;;;5072132;28;20185;-58
2021/01/17 07:04:49;;;;;;;25.08;16.00;;;0.90;99.90;;;;;;5056744;28;20192;-58
2021/01/17 07:07:49;;;;;;;23.15;14.32;;;1.00;99.90;;;;;;5053356;28;20189;-57
2021/01/17 07:10:20;;;;;;;22.85;15.20;;;0.90;99.90;;;;;;5060954;28;20292;-58
2021/01/17 07:12:46;;;;;;;26.42;17.42;;;0.90;99.90;;;;;;5056635;28;20188;-58
2021/01/17 07:15:13;;;;;;;23.73;15.90;;;0.80;99.90;;;;;;5051692;28;20213;-57
2021/01/17 07:17:41;;;;;;;25.92;17.10;;;0.80;99.90;;;;;;5057109;28;20232;-58
2021/01/17 07:20:13;;;;;;;25.60;16.83;;;0.70;99.90;;;;;;5050518;28;20670;-57
2021/01/17 07:22:42;;;;;;;27.75;16.73;;;0.90;99.90;;;;;;5060457;28;20657;-58
2021/01/17 07:25:10;;;;;;;24.92;16.27;;;0.80;99.90;;;;;;5061869;28;20202;-57
2021/01/17 07:27:55;;;;;;;23.17;17.00;;;0.80;99.90;;;;;;5052056;28;20597;-58
2021/01/17 07:30:32;;;;;;;25.05;16.38;;;0.70;99.90;;;;;;5053371;28;20202;-57
2021/01/17 07:33:03;;;;;;;28.70;17.25;;;1.00;99.90;;;;;;5067613;28;20227;-57
2021/01/17 07:35:34;;;;;;;26.40;16.90;;;0.20;99.90;;;;;;5068053;28;20190;-58
2021/01/17 07:38:07;;;;;;;25.25;16.45;;;0.90;99.90;;;;;;5059492;28;20195;-58
2021/01/17 07:40:53;;;;;;;26.52;15.65;;;0.70;99.90;;;;;;5052875;28;20189;-58
2021/01/17 07:43:27;;;;;;;27.98;16.35;;;1.00;99.90;;;;;;5050085;28;20271;-58
2021/01/17 07:45:55;;;;;;;33.10;17.02;;;0.80;99.90;;;;;;5064882;28;20303;-58
2021/01/17 07:48:21;;;;;;;24.75;17.42;;;0.40;99.90;;;;;;5063523;28;20200;-58
2021/01/17 07:50:49;;;;;;;24.65;15.82;;;1.00;99.90;;;;;;5061908;28;20740;-58
2021/01/17 07:53:37;;;;;;;26.00;17.13;;;1.10;99.90;;;;;;5054550;28;20194;-58
2021/01/17 07:56:17;;;;;;;28.42;18.95;;;1.20;99.90;;;;;;5055259;28;20181;-58
2021/01/17 07:58:48;;;;;;;25.70;17.02;;;1.10;99.90;;;;;;5054706;28;20696;-57
2021/01/17 08:01:34;;;;;;;26.70;16.52;;;1.10;99.90;;;;;;5053741;28;20180;-58
2021/01/17 08:04:11;;;;;;;23.27;14.45;;;1.20;99.90;;;;;;5054476;28;20586;-58
2021/01/17 08:06:36;;;;;;;28.27;18.23;;;1.10;99.90;;;;;;5058246;28;20299;-57
2021/01/17 08:09:05;;;;;;;28.90;17.13;;;0.90;99.90;;;;;;5063180;28;20497;-58
2021/01/17 08:11:46;;;;;;;25.23;16.08;;;0.80;99.90;;;;;;5062958;28;20560;-58
2021/01/17 08:14:39;;;;;;;28.38;18.25;;;1.00;99.90;;;;;;5047803;28;20230;-58
2021/01/17 08:17:14;;;;;;;27.48;17.00;;;0.90;99.90;;;;;;5062781;28;20671;-58
2021/01/17 08:19:54;;;;;;;30.65;19.52;;;1.10;99.90;;;;;;5064499;28;20208;-58
2021/01/17 08:22:23;;;;;;;37.10;17.38;;;1.10;99.90;;;;;;5066088;28;20189;-58
2021/01/17 08:24:55;;;;;;;39.53;24.05;;;1.20;99.90;;;;;;5058288;28;20833;-58
2021/01/17 08:27:31;;;;;;;28.15;17.75;;;0.50;99.90;;;;;;5057014;28;20262;-58
2021/01/17 08:30:10;;;;;;;25.77;18.33;;;0.90;99.90;;;;;;5060287;28;20217;-58
2021/01/17 08:32:47;;;;;;;29.17;17.98;;;1.10;99.90;;;;;;5066427;28;20711;-58
2021/01/17 08:35:13;;;;;;;25.92;17.67;;;1.40;99.90;;;;;;5062428;28;20208;-58
2021/01/17 08:37:43;;;;;;;25.23;17.37;;;1.60;99.90;;;;;;5068506;28;20464;-58
2021/01/17 08:40:09;;;;;;;35.42;20.65;;;1.40;99.90;;;;;;5053188;28;20209;-58
2021/01/17 08:42:38;;;;;;;24.70;17.65;;;1.60;99.90;;;;;;5056989;28;20208;-58
2021/01/17 08:45:37;;;;;;;26.60;17.80;;;1.80;99.90;;;;;;5057391;28;20209;-58
2021/01/17 08:48:21;;;;;;;24.33;16.33;;;1.30;99.90;;;;;;5055377;28;20205;-57
2021/01/17 08:50:49;;;;;;;27.23;17.63;;;1.90;99.90;;;;;;5078992;28;20193;-58
2021/01/17 08:53:35;;;;;;;27.60;18.90;;;1.90;99.90;;;;;;5065332;28;20315;-57
2021/01/17 08:56:10;;;;;;;25.25;16.58;;;1.80;99.90;;;;;;5057144;28;20232;-57
2021/01/17 08:58:36;;;;;;;30.90;17.63;;;1.70;99.90;;;;;;5065574;28;20296;-57
2021/01/17 09:01:09;;;;;;;27.10;17.70;;;1.40;99.90;;;;;;5065320;28;20181;-58
2021/01/17 09:03:41;;;;;;;29.13;19.48;;;1.60;99.90;;;;;;5061044;28;20192;-58
2021/01/17 09:06:12;;;;;;;29.35;18.50;;;1.50;99.90;;;;;;5071325;28;20215;-58
2021/01/17 09:08:53;;;;;;;25.08;18.38;;;1.60;99.90;;;;;;5057722;28;20977;-58
2021/01/17 09:11:28;;;;;;;30.55;19.30;;;1.40;99.90;;;;;;5065664;28;20208;-58
2021/01/17 09:14:25;;;;;;;29.88;20.20;;;1.40;99.90;;;;;;5054475;28;20189;-57
2021/01/17 09:17:00;;;;;;;31.25;19.95;;;1.40;99.90;;;;;;5060312;28;20185;-57
2021/01/17 09:19:34;;;;;;;29.60;19.10;;;1.70;99.90;;;;;;5058393;28;20207;-59
2021/01/17 09:22:03;;;;;;;29.77;19.10;;;1.60;99.90;;;;;;5065305;28;20181;-58
2021/01/17 09:24:31;;;;;;;24.73;18.63;;;1.60;99.90;;;;;;5063083;28;20658;-58
2021/01/17 09:27:01;;;;;;;25.85;18.05;;;1.60;99.90;;;;;;5066955;28;20205;-57
2021/01/17 09:29:36;;;;;;;28.27;18.27;;;1.80;99.90;;;;;;5057713;28;20236;-57
2021/01/17 09:32:03;;;;;;;28.40;19.10;;;2.00;99.90;;;;;;5064035;28;20184;-57
2021/01/17 09:34:34;;;;;;;41.85;27.25;;;1.70;99.90;;;;;;5058852;28;20235;-59
2021/01/17 09:37:02;;;;;;;28.13;19.65;;;2.10;99.90;;;;;;5062312;28;20239;-59
2021/01/17 09:39:34;;;;;;;28.23;18.27;;;2.00;99.90;;;;;;5065081;28;20223;-60
2021/01/17 09:42:01;;;;;;;28.10;19.38;;;2.20;99.90;;;;;;5059180;28;20182;-57
2021/01/17 09:44:27;;;;;;;25.88;17.75;;;2.10;99.90;;;;;;5056275;28;20828;-57
2021/01/17 09:46:54;;;;;;;26.88;18.48;;;2.30;99.90;;;;;;5061581;28;20273;-57
2021/01/17 09:49:27;;;;;;;30.90;17.60;;;2.30;99.90;;;;;;5051426;28;20642;-62
2021/01/17 09:51:53;;;;;;;27.42;17.75;;;2.40;99.90;;;;;;5078754;28;20176;-60
2021/01/17 09:54:20;;;;;;;28.45;19.55;;;2.30;99.90;;;;;;5055975;28;20185;-60
2021/01/17 09:56:46;;;;;;;23.55;16.92;;;2.40;99.90;;;;;;5052985;28;20500;-58
2021/01/17 09:59:13;;;;;;;26.50;17.90;;;2.30;99.90;;;;;;5067742;28;20296;-59
2021/01/17 10:01:40;;;;;;;26.70;17.98;;;2.60;99.90;;;;;;5065161;28;20492;-57
2021/01/17 10:04:06;;;;;;;24.13;16.77;;;2.30;99.90;;;;;;5067791;28;20558;-57
2021/01/17 10:06:35;;;;;;;25.70;18.37;;;2.40;99.90;;;;;;5063371;28;20205;-59
2021/01/17 10:09:01;;;;;;;26.58;19.08;;;2.30;99.90;;;;;;5060987;28;20197;-58
2021/01/17 10:11:26;;;;;;;27.13;18.90;;;2.30;99.90;;;;;;5061404;28;20204;-57
2021/01/17 10:13:52;;;;;;;26.50;17.27;;;2.20;99.90;;;;;;5056943;28;20187;-58
2021/01/17 10:16:24;;;;;;;25.40;18.43;;;2.20;99.90;;;;;;5055908;28;20188;-59
2021/01/17 10:18:50;;;;;;;25.92;17.45;;;2.20;99.90;;;;;;5069609;28;20263;-59
2021/01/17 10:21:20;;;;;;;28.50;18.65;;;2.30;99.90;;;;;;5053449;28;20583;-58
2021/01/17 10:23:50;;;;;;;27.08;18.60;;;2.60;99.90;;;;;;5058954;28;20196;-59
2021/01/17 10:26:23;;;;;;;30.25;17.92;;;2.20;99.90;;;;;;5066038;28;20210;-58
2021/01/17 10:28:55;;;;;;;26.85;17.27;;;2.40;99.90;;;;;;5074475;28;20302;-57
2021/01/17 10:31:23;;;;;;;29.00;18.20;;;2.20;99.90;;;;;;5051694;28;20204;-56
2021/01/17 10:33:49;;;;;;;26.63;17.08;;;2.30;99.90;;;;;;5049635;28;20181;-57
2021/01/17 10:36:16;;;;;;;26.00;17.17;;;2.50;99.90;;;;;;5063971;28;20188;-58
2021/01/17 10:38:43;;;;;;;24.42;17.60;;;2.20;99.90;;;;;;5062704;28;20685;-57
2021/01/17 10:41:12;;;;;;;28.73;18.77;;;2.50;99.90;;;;;;5071790;28;20658;-59
2021/01/17 10:43:41;;;;;;;30.35;20.05;;;2.50;99.90;;;;;;5061795;28;20217;-59
2021/01/17 10:46:10;;;;;;;24.17;15.75;;;2.30;99.90;;;;;;5056430;28;20292;-57
2021/01/17 10:48:52;;;;;;;23.23;15.65;;;2.50;99.90;;;;;;5050334;28;20217;-57
2021/01/17 10:51:37;;;;;;;27.83;18.00;;;2.40;99.90;;;;;;5069260;28;20177;-58
2021/01/17 10:54:05;;;;;;;22.90;16.85;;;2.60;99.90;;;;;;5084950;28;20559;-58
2021/01/17 10:56:32;;;;;;;24.10;17.35;;;2.10;99.90;;;;;;5062910;28;20610;-58
2021/01/17 10:58:58;;;;;;;23.02;16.20;;;2.70;99.90;;;;;;5065979;28;20208;-59
2021/01/17 11:01:31;;;;;;;24.00;16.80;;;2.70;99.90;;;;;;5054259;28;20234;-58
2021/01/17 11:03:59;;;;;;;21.10;15.68;;;2.70;99.90;;;;;;5057384;28;20542;-58
2021/01/17 11:06:27;;;;;;;22.55;15.65;;;3.00;99.90;;;;;;5051577;28;20209;-58
2021/01/17 11:08:56;;;;;;;24.00;15.45;;;3.00;99.90;;;;;;5057133;28;20610;-58
2021/01/17 11:11:24;;;;;;;23.02;14.70;;;2.80;99.90;;;;;;5059914;28;20188;-58
2021/01/17 11:14:00;;;;;;;24.90;15.90;;;3.10;99.90;;;;;;5054418;28;20538;-58
2021/01/17 11:16:33;;;;;;;20.77;14.68;;;2.60;99.90;;;;;;5052205;28;20200;-58
2021/01/17 11:18:59;;;;;;;22.73;13.77;;;3.10;99.90;;;;;;5053810;28;20229;-55
2021/01/17 11:21:26;;;;;;;16.85;12.80;;;3.30;99.90;;;;;;5054966;28;20217;-57
2021/01/17 11:23:53;;;;;;;21.15;13.82;;;3.70;99.90;;;;;;5063104;28;20225;-55
2021/01/17 11:26:22;;;;;;;29.83;13.57;;;3.40;99.90;;;;;;5055862;28;20225;-56
2021/01/17 11:28:56;;;;;;;18.73;12.32;;;2.70;99.90;;;;;;5059141;28;20253;-58
2021/01/17 11:31:23;;;;;;;19.08;13.20;;;3.40;99.90;;;;;;5064134;28;20184;-58
2021/01/17 11:33:49;;;;;;;17.05;12.88;;;3.50;99.90;;;;;;5048376;28;20578;-58
2021/01/17 11:36:25;;;;;;;20.55;14.23;;;3.10;99.90;;;;;;5060684;28;20566;-56
2021/01/17 11:38:53;;;;;;;19.45;12.95;;;3.30;99.90;;;;;;5060486;28;20753;-60
2021/01/17 11:41:20;;;;;;;20.95;13.00;;;3.40;99.90;;;;;;5061453;28;20185;-58
2021/01/17 11:43:47;;;;;;;18.08;13.10;;;3.40;99.90;;;;;;5049980;28;20244;-57
2021/01/17 11:46:14;;;;;;;16.13;11.93;;;2.80;99.90;;;;;;5060881;28;20208;-58
2021/01/17 11:48:41;;;;;;;16.80;12.43;;;3.20;99.90;;;;;;5054229;28;20620;-58
2021/01/17 11:51:09;;;;;;;19.20;13.45;;;3.40;99.90;;;;;;5061956;28;20561;-58
2021/01/17 11:53:35;;;;;;;19.00;12.95;;;3.60;99.90;;;;;;5048921;28;20185;-58
2021/01/17 11:56:01;;;;;;;18.95;12.65;;;3.60;99.90;;;;;;5049972;28;20182;-58
2021/01/17 11:58:28;;;;;;;21.23;12.73;;;3.60;99.90;;;;;;5048526;28;20221;-60
2021/01/17 12:01:02;;;;;;;20.08;13.13;;;3.40;99.90;;;;;;5052575;28;20220;-59
2021/01/17 12:03:33;;;;;;;15.98;11.93;;;2.90;99.90;;;;;;5059095;28;20242;-58
2021/01/17 12:06:08;;;;;;;22.25;14.02;;;3.20;99.90;;;;;;5052604;28;20212;-58
2021/01/17 12:09:06;;;;;;;23.60;15.88;;;3.50;99.90;;;;;;5066671;28;20702;-58
2021/01/17 12:11:46;;;;;;;26.23;17.35;;;3.20;99.90;;;;;;5050840;28;20202;-57
2021/01/17 12:14:13;;;;;;;22.70;15.32;;;3.30;99.90;;;;;;5054845;28;20646;-58
2021/01/17 12:16:51;;;;;;;26.20;16.20;;;3.20;99.90;;;;;;5058911;28;20192;-58
2021/01/17 12:19:17;;;;;;;22.25;15.93;;;3.30;99.90;;;;;;5057230;28;20666;-58
2021/01/17 12:21:44;;;;;;;21.50;15.57;;;3.40;99.90;;;;;;5058549;28;20200;-58
2021/01/17 12:24:14;;;;;;;21.17;14.60;;;3.40;99.90;;;;;;5058913;28;20532;-58
2021/01/17 12:26:41;;;;;;;22.63;14.20;;;3.60;99.90;;;;;;5052481;28;20610;-58
2021/01/17 12:29:08;;;;;;;19.77;13.27;;;3.60;99.90;;;;;;5059764;28;20209;-58
2021/01/17 12:31:34;;;;;;;17.88;13.23;;;3.60;99.90;;;;;;5061080;28;20184;-57
2021/01/17 12:34:00;;;;;;;17.17;12.25;;;3.80;99.90;;;;;;5051512;28;20181;-58
2021/01/17 12:36:28;;;;;;;20.67;14.63;;;3.80;99.90;;;;;;5060329;28;20180;-58
2021/01/17 12:38:55;;;;;;;17.27;12.77;;;4.00;99.90;;;;;;5054870;28;20240;-58
2021/01/17 12:41:24;;;;;;;19.52;12.55;;;3.80;99.90;;;;;;5053722;28;20177;-59
2021/01/17 12:43:50;;;;;;;21.17;14.65;;;3.70;99.90;;;;;;5063379;28;20264;-58
2021/01/17 12:46:17;;;;;;;17.20;13.40;;;3.80;99.90;;;;;;5048534;28;20208;-59
2021/01/17 12:48:42;;;;;;;19.05;14.63;;;3.90;99.90;;;;;;5053516;28;20475;-58
2021/01/17 12:51:09;;;;;;;20.03;14.33;;;3.80;99.90;;;;;;5051946;28;20182;-59
2021/01/17 12:53:35;;;;;;;21.50;15.00;;;3.90;99.90;;;;;;5053224;28;20972;-59